createdAt,value
2019-05-09T00:01:23.816Z,9.30
2019-05-09T00:03:54.321Z,9.35
2019-05-09T00:06:23.905Z,9.37
2019-05-09T00:08:53.367Z,9.43
2019-05-09T00:11:26.500Z,9.29
2019-05-09T00:13:55.117Z,9.29
2019-05-09T00:16:23.810Z,9.28
2019-05-09T00:18:54.094Z,9.33
2019-05-09T00:21:30.291Z,9.33
2019-05-09T00:23:58.897Z,9.34
2019-05-09T00:26:29.084Z,9.35
2019-05-09T00:29:13.917Z,9.22
2019-05-09T00:31:50.906Z,9.18
2019-05-09T00:34:37.379Z,9.11
2019-05-09T00:37:07.559Z,9.22
2019-05-09T00:39:36.169Z,9.15
2019-05-09T00:42:07.672Z,8.89
2019-05-09T00:44:43.952Z,8.95
2019-05-09T00:47:16.874Z,8.98
2019-05-09T00:49:45.486Z,9.11
2019-05-09T00:52:14.271Z,9.10
2019-05-09T00:54:45.804Z,9.09
2019-05-09T00:57:16.029Z,9.12
2019-05-09T00:59:44.730Z,9.20
2019-05-09T01:02:13.336Z,9.19
2019-05-09T01:04:43.802Z,9.28
2019-05-09T01:07:13.948Z,9.21
2019-05-09T01:09:44.480Z,9.17
2019-05-09T01:12:14.357Z,9.19
2019-05-09T01:14:43.346Z,9.10
2019-05-09T01:17:13.632Z,9.12
2019-05-09T01:19:43.270Z,9.10
2019-05-09T01:22:13.230Z,9.06
2019-05-09T01:24:44.182Z,8.98
2019-05-09T01:27:14.231Z,8.99
2019-05-09T01:29:43.901Z,8.98
2019-05-09T01:32:20.343Z,9.09
2019-05-09T01:34:48.973Z,9.10
2019-05-09T01:37:17.620Z,9.03
2019-05-09T01:39:46.285Z,9.01
2019-05-09T01:42:14.957Z,8.99
2019-05-09T01:44:44.144Z,8.92
2019-05-09T01:47:14.124Z,8.89
2019-05-09T01:49:43.286Z,8.99
2019-05-09T01:52:13.783Z,9.05
2019-05-09T01:54:45.976Z,9.09
2019-05-09T01:57:14.594Z,9.12
2019-05-09T01:59:44.350Z,9.16
2019-05-09T02:02:14.209Z,9.09
2019-05-09T02:04:43.978Z,9.04
2019-05-09T02:07:13.452Z,8.96
2019-05-09T02:09:43.420Z,8.90
2019-05-09T02:12:14.143Z,8.99
2019-05-09T02:14:47.881Z,9.06
2019-05-09T02:17:23.245Z,9.05
2019-05-09T02:19:53.303Z,9.02
2019-05-09T02:22:34.711Z,9.05
2019-05-09T02:25:05.635Z,9.12
2019-05-09T02:27:34.313Z,9.10
2019-05-09T02:30:05.887Z,9.02
2019-05-09T02:32:34.738Z,8.97
2019-05-09T02:35:05.253Z,9.00
2019-05-09T02:37:33.859Z,8.91
2019-05-09T02:40:02.563Z,8.87
2019-05-09T02:42:31.199Z,8.78
2019-05-09T02:44:59.885Z,8.70
2019-05-09T02:47:29.136Z,8.71
2019-05-09T02:49:59.023Z,8.57
2019-05-09T02:52:28.797Z,8.58
2019-05-09T02:54:58.428Z,8.55
2019-05-09T02:57:29.908Z,8.45
2019-05-09T03:00:09.590Z,8.55
2019-05-09T03:02:39.854Z,8.55
2019-05-09T03:05:08.999Z,8.53
2019-05-09T03:07:50.120Z,8.44
2019-05-09T03:10:19.926Z,8.42
2019-05-09T03:12:50.351Z,8.40
2019-05-09T03:15:20.619Z,8.45
2019-05-09T03:17:49.955Z,8.42
2019-05-09T03:20:39.001Z,8.39
2019-05-09T03:23:09.088Z,8.50
2019-05-09T03:25:40.506Z,8.50
2019-05-09T03:28:09.736Z,8.64
2019-05-09T03:30:45.632Z,8.58
2019-05-09T03:33:14.245Z,8.53
2019-05-09T03:35:44.494Z,8.64
2019-05-09T03:38:13.163Z,8.58
2019-05-09T03:40:41.785Z,8.56
2019-05-09T03:43:10.447Z,8.51
2019-05-09T03:45:48.096Z,8.58
2019-05-09T03:48:37.499Z,8.60
2019-05-09T03:51:08.106Z,8.56
2019-05-09T03:53:37.961Z,8.47
2019-05-09T03:56:08.393Z,8.51
2019-05-09T03:58:38.616Z,8.53
2019-05-09T04:01:10.417Z,8.51
2019-05-09T04:03:37.963Z,8.55
2019-05-09T04:06:08.244Z,8.57
2019-05-09T04:08:37.665Z,8.48
2019-05-09T04:11:08.639Z,8.55
2019-05-09T04:13:39.055Z,8.54
2019-05-09T04:16:07.715Z,8.53
2019-05-09T04:18:37.639Z,8.45
2019-05-09T04:21:08.465Z,8.52
2019-05-09T04:23:37.981Z,8.52
2019-05-09T04:26:24.515Z,8.54
2019-05-09T04:28:53.220Z,8.39
2019-05-09T04:31:21.837Z,8.45
2019-05-09T04:33:50.528Z,8.52
2019-05-09T04:36:20.764Z,8.52
2019-05-09T04:38:49.512Z,8.45
2019-05-09T04:41:23.829Z,8.42
2019-05-09T04:43:50.034Z,8.45
2019-05-09T04:46:24.479Z,8.46
2019-05-09T04:48:54.042Z,8.53
2019-05-09T04:51:25.120Z,8.53
2019-05-09T04:53:53.807Z,8.38
2019-05-09T04:56:27.867Z,8.51
2019-05-09T04:58:58.355Z,8.63
2019-05-09T05:01:34.863Z,8.61
2019-05-09T05:04:03.489Z,8.62
2019-05-09T05:06:33.799Z,8.64
2019-05-09T05:09:02.489Z,8.68
2019-05-09T05:11:31.165Z,8.66
2019-05-09T05:14:02.978Z,8.58
2019-05-09T05:16:31.698Z,8.63
2019-05-09T05:19:01.008Z,8.56
2019-05-09T05:21:32.578Z,8.54
2019-05-09T05:24:04.399Z,8.58
2019-05-09T05:26:33.008Z,8.55
2019-05-09T05:29:03.267Z,8.53
2019-05-09T05:31:31.949Z,8.57
2019-05-09T05:34:18.248Z,8.52
2019-05-09T05:36:50.221Z,8.49
2019-05-09T05:39:18.945Z,8.51
2019-05-09T05:41:48.406Z,8.60
2019-05-09T05:44:17.847Z,8.61
2019-05-09T05:46:50.735Z,8.65
2019-05-09T05:49:18.771Z,8.61
2019-05-09T05:51:51.209Z,8.77
2019-05-09T05:54:21.120Z,8.83
2019-05-09T05:56:49.784Z,8.77
2019-05-09T05:59:18.889Z,8.75
2019-05-09T06:01:48.018Z,8.70
2019-05-09T06:04:18.619Z,8.67
2019-05-09T06:06:48.123Z,8.78
2019-05-09T06:09:18.873Z,8.79
2019-05-09T06:11:48.473Z,8.82
2019-05-09T06:14:18.451Z,8.71
2019-05-09T06:16:48.618Z,8.70
2019-05-09T06:19:17.923Z,8.66
2019-05-09T06:21:49.236Z,8.60
2019-05-09T06:24:18.279Z,8.67
2019-05-09T06:26:48.056Z,8.68
2019-05-09T06:29:17.733Z,8.71
2019-05-09T06:31:48.500Z,8.71
2019-05-09T06:34:18.759Z,8.82
2019-05-09T06:36:48.835Z,8.90
2019-05-09T06:39:18.155Z,8.96
2019-05-09T06:41:48.333Z,8.97
2019-05-09T06:44:20.645Z,8.96
2019-05-09T06:46:53.929Z,8.94
2019-05-09T06:49:29.382Z,8.93
2019-05-09T06:51:54.596Z,9.04
2019-05-09T06:54:24.786Z,9.07
2019-05-09T06:56:53.515Z,9.14
2019-05-09T06:59:22.241Z,9.17
2019-05-09T07:01:52.544Z,9.29
2019-05-09T07:04:22.717Z,9.37
2019-05-09T07:06:55.750Z,9.43
2019-05-09T07:09:27.970Z,9.31
2019-05-09T07:11:58.584Z,9.30
2019-05-09T07:14:32.300Z,9.22
2019-05-09T07:16:58.940Z,9.28
2019-05-09T07:19:28.078Z,9.32
2019-05-09T07:22:13.796Z,9.24
2019-05-09T07:25:06.746Z,9.49
2019-05-09T07:27:32.495Z,9.63
2019-05-09T07:30:02.744Z,9.25
2019-05-09T07:32:38.212Z,9.10
2019-05-09T07:35:08.937Z,9.10
2019-05-09T07:37:38.032Z,9.11
2019-05-09T07:40:08.608Z,9.24
2019-05-09T07:42:39.119Z,9.07
2019-05-09T07:45:09.095Z,9.10
2019-05-09T07:47:38.732Z,9.23
2019-05-09T07:50:08.565Z,9.35
2019-05-09T07:52:38.761Z,9.23
2019-05-09T07:55:08.871Z,9.24
2019-05-09T07:57:46.226Z,9.15
2019-05-09T08:00:09.705Z,9.22
2019-05-09T08:02:38.765Z,9.22
2019-05-09T08:05:08.725Z,9.38
2019-05-09T08:07:38.386Z,9.33
2019-05-09T08:10:10.924Z,9.17
2019-05-09T08:12:38.902Z,9.13
2019-05-09T08:15:16.086Z,9.20
2019-05-09T08:17:38.437Z,9.18
2019-05-09T08:20:08.005Z,9.20
2019-05-09T08:22:42.176Z,9.40
2019-05-09T08:25:08.316Z,9.56
2019-05-09T08:27:37.804Z,9.48
2019-05-09T08:30:08.064Z,9.86
2019-05-09T08:32:37.705Z,9.94
2019-05-09T08:35:08.306Z,9.76
2019-05-09T08:37:39.025Z,9.81
2019-05-09T08:40:08.140Z,9.96
2019-05-09T08:42:37.846Z,9.83
2019-05-09T08:45:17.382Z,10.07
2019-05-09T08:47:38.246Z,9.86
2019-05-09T08:50:17.615Z,9.72
2019-05-09T08:52:48.212Z,9.85
2019-05-09T08:55:17.482Z,9.94
2019-05-09T08:57:49.035Z,9.66
2019-05-09T09:00:18.881Z,9.62
2019-05-09T09:02:48.338Z,9.77
2019-05-09T09:05:18.635Z,10.16
2019-05-09T09:07:48.749Z,10.33
2019-05-09T09:10:18.835Z,9.82
2019-05-09T09:12:48.001Z,9.81
2019-05-09T09:15:17.991Z,10.28
2019-05-09T09:17:49.064Z,10.35
2019-05-09T09:20:18.220Z,10.45
2019-05-09T09:22:48.040Z,10.53
2019-05-09T09:25:18.352Z,10.68
2019-05-09T09:27:50.872Z,10.63
2019-05-09T09:30:24.739Z,10.46
2019-05-09T09:32:51.351Z,10.53
2019-05-09T09:35:20.067Z,10.24
2019-05-09T09:37:52.159Z,10.50
2019-05-09T09:40:19.283Z,10.42
2019-05-09T09:42:49.057Z,10.33
2019-05-09T09:45:18.507Z,10.17
2019-05-09T09:47:48.467Z,10.12
2019-05-09T09:50:17.809Z,10.38
2019-05-09T09:52:49.156Z,10.52
2019-05-09T09:55:18.473Z,10.66
2019-05-09T09:57:48.498Z,10.78
2019-05-09T10:00:31.223Z,10.85
2019-05-09T10:02:59.856Z,10.99
2019-05-09T10:05:28.762Z,11.08
2019-05-09T10:07:58.181Z,11.15
2019-05-09T10:10:35.231Z,11.23
2019-05-09T10:13:04.314Z,11.20
2019-05-09T10:15:34.810Z,11.51
2019-05-09T10:18:07.364Z,11.66
2019-05-09T10:20:42.700Z,12.24
2019-05-09T10:23:18.121Z,12.56
2019-05-09T10:25:41.992Z,12.61
2019-05-09T10:28:10.665Z,12.82
2019-05-09T10:30:39.312Z,12.88
2019-05-09T10:33:09.193Z,12.81
2019-05-09T10:35:39.246Z,12.79
2019-05-09T10:38:08.870Z,12.26
2019-05-09T10:40:39.812Z,12.23
2019-05-09T10:43:35.959Z,12.04
2019-05-09T10:46:19.050Z,12.45
2019-05-09T10:48:48.071Z,11.55
2019-05-09T10:51:18.544Z,11.94
2019-05-09T10:53:48.141Z,11.64
2019-05-09T10:56:18.783Z,11.94
2019-05-09T10:58:48.365Z,11.70
2019-05-09T11:01:18.447Z,12.09
2019-05-09T11:03:48.450Z,12.23
2019-05-09T11:06:18.561Z,12.63
2019-05-09T11:08:48.050Z,12.77
2019-05-09T11:11:18.355Z,13.11
2019-05-09T11:13:48.170Z,12.76
2019-05-09T11:16:18.375Z,13.25
2019-05-09T11:18:48.261Z,12.55
2019-05-09T11:21:19.309Z,12.76
2019-05-09T11:23:50.119Z,13.05
2019-05-09T11:26:18.807Z,13.40
2019-05-09T11:28:47.473Z,12.83
2019-05-09T11:31:18.394Z,12.58
2019-05-09T11:33:48.451Z,12.84
2019-05-09T11:36:21.233Z,13.15
2019-05-09T11:38:49.700Z,12.87
2019-05-09T11:41:19.489Z,12.61
2019-05-09T11:43:48.759Z,12.73
2019-05-09T11:46:19.763Z,12.61
2019-05-09T11:48:48.126Z,12.67
2019-05-09T11:51:20.424Z,12.76
2019-05-09T11:53:48.560Z,12.61
2019-05-09T11:56:18.217Z,12.61
2019-05-09T11:58:48.172Z,12.80
2019-05-09T12:01:19.370Z,12.86
2019-05-09T12:03:51.941Z,13.21
2019-05-09T12:06:20.210Z,12.59
2019-05-09T12:08:48.583Z,13.17
2019-05-09T12:11:18.173Z,13.20
2019-05-09T12:13:48.702Z,13.54
2019-05-09T12:16:18.371Z,13.40
2019-05-09T12:18:48.811Z,13.64
2019-05-09T12:21:19.010Z,14.15
2019-05-09T12:23:49.075Z,14.42
2019-05-09T12:26:18.723Z,14.10
2019-05-09T12:28:48.363Z,14.08
2019-05-09T12:31:18.068Z,14.19
2019-05-09T12:33:48.405Z,13.84
2019-05-09T12:36:18.997Z,13.63
2019-05-09T12:38:49.836Z,13.84
2019-05-09T12:41:19.628Z,14.01
2019-05-09T12:43:49.889Z,14.10
2019-05-09T12:46:18.725Z,13.89
2019-05-09T12:48:49.026Z,14.26
2019-05-09T12:51:18.466Z,14.39
2019-05-09T12:53:48.514Z,14.51
2019-05-09T12:56:18.756Z,14.42
2019-05-09T12:58:47.909Z,14.42
2019-05-09T13:01:19.026Z,14.63
2019-05-09T13:03:48.571Z,15.10
2019-05-09T13:06:20.218Z,14.82
2019-05-09T13:08:48.186Z,14.99
2019-05-09T13:11:20.205Z,14.92
2019-05-09T13:13:49.149Z,15.38
2019-05-09T13:16:44.185Z,15.61
2019-05-09T13:19:03.853Z,15.21
2019-05-09T13:21:33.304Z,15.98
2019-05-09T13:24:02.435Z,15.79
2019-05-09T13:26:31.211Z,16.12
2019-05-09T13:28:59.864Z,16.32
2019-05-09T13:31:29.422Z,16.61
2019-05-09T13:33:58.733Z,16.39
2019-05-09T13:36:28.381Z,16.45
2019-05-09T13:39:04.208Z,16.07
2019-05-09T13:41:27.997Z,15.36
2019-05-09T13:43:59.122Z,15.16
2019-05-09T13:46:28.554Z,15.72
2019-05-09T13:49:11.023Z,15.59
2019-05-09T13:51:27.727Z,15.56
2019-05-09T13:53:59.098Z,15.77
2019-05-09T13:56:28.033Z,15.36
2019-05-09T13:58:58.150Z,15.22
2019-05-09T14:01:27.276Z,15.12
2019-05-09T14:03:57.738Z,15.09
2019-05-09T14:06:27.732Z,15.25
2019-05-09T14:08:59.492Z,15.35
2019-05-09T14:11:29.195Z,15.81
2019-05-09T14:14:00.470Z,15.56
2019-05-09T14:16:29.157Z,15.43
2019-05-09T14:19:23.951Z,15.22
2019-05-09T14:21:30.034Z,15.38
2019-05-09T14:24:10.996Z,15.36
2019-05-09T14:26:29.215Z,15.52
2019-05-09T14:28:58.364Z,14.96
2019-05-09T14:31:32.135Z,15.06
2019-05-09T14:33:57.631Z,15.10
2019-05-09T14:36:27.771Z,15.21
2019-05-09T14:38:57.987Z,15.21
2019-05-09T14:41:27.769Z,15.24
2019-05-09T14:43:56.614Z,15.07
2019-05-09T14:46:25.327Z,15.16
2019-05-09T14:48:53.971Z,15.08
2019-05-09T14:51:22.663Z,15.03
2019-05-09T14:53:51.491Z,14.83
2019-05-09T14:56:23.057Z,14.94
2019-05-09T14:58:51.762Z,14.84
2019-05-09T15:01:20.401Z,14.76
2019-05-09T15:03:49.107Z,14.82
2019-05-09T15:06:18.360Z,14.79
2019-05-09T15:08:48.262Z,14.75
2019-05-09T15:11:18.527Z,14.80
2019-05-09T15:13:47.791Z,14.71
2019-05-09T15:16:18.456Z,14.54
2019-05-09T15:18:48.637Z,14.51
2019-05-09T15:21:19.212Z,14.30
2019-05-09T15:23:48.328Z,14.62
2019-05-09T15:26:17.780Z,14.45
2019-05-09T15:28:48.497Z,14.30
2019-05-09T15:31:18.289Z,14.26
2019-05-09T15:33:48.579Z,14.22
2019-05-09T15:36:19.330Z,14.20
2019-05-09T15:38:48.754Z,14.08
2019-05-09T15:41:18.361Z,13.92
2019-05-09T15:43:49.501Z,13.79
2019-05-09T15:46:22.546Z,13.72
2019-05-09T15:48:52.718Z,13.60
2019-05-09T15:51:21.412Z,13.41
2019-05-09T15:53:53.201Z,13.73
2019-05-09T15:56:22.609Z,13.02
2019-05-09T15:58:51.254Z,12.65
2019-05-09T16:01:19.950Z,12.71
2019-05-09T16:03:48.906Z,13.04
2019-05-09T16:06:19.579Z,12.84
2019-05-09T16:08:48.364Z,12.97
2019-05-09T16:11:17.987Z,12.84
2019-05-09T16:13:48.979Z,13.09
2019-05-09T16:16:17.811Z,13.08
2019-05-09T16:18:48.717Z,12.96
2019-05-09T16:21:17.061Z,12.88
2019-05-09T16:23:45.717Z,12.80
2019-05-09T16:26:14.796Z,12.80
2019-05-09T16:28:43.446Z,12.61
2019-05-09T16:31:13.576Z,12.60
2019-05-09T16:33:42.181Z,12.42
2019-05-09T16:36:12.447Z,12.59
2019-05-09T16:38:45.754Z,12.70
2019-05-09T16:41:11.602Z,12.60
2019-05-09T16:43:41.927Z,12.31
2019-05-09T16:46:10.975Z,12.33
2019-05-09T16:48:39.854Z,12.35
2019-05-09T16:51:08.602Z,12.22
2019-05-09T16:53:37.250Z,11.99
2019-05-09T16:56:08.182Z,12.10
2019-05-09T16:58:59.341Z,11.83
2019-05-09T17:01:28.498Z,11.83
2019-05-09T17:03:59.507Z,11.62
2019-05-09T17:06:31.279Z,11.61
2019-05-09T17:09:00.257Z,11.43
2019-05-09T17:11:29.067Z,11.30
2019-05-09T17:13:58.462Z,11.29
2019-05-09T17:16:28.458Z,11.17
2019-05-09T17:18:58.217Z,11.22
2019-05-09T17:21:48.088Z,11.10
2019-05-09T17:24:18.532Z,10.81
2019-05-09T17:26:48.894Z,11.03
2019-05-09T17:29:18.520Z,11.02
2019-05-09T17:31:48.817Z,10.67
2019-05-09T17:34:18.216Z,10.66
2019-05-09T17:36:47.888Z,10.65
2019-05-09T17:39:18.608Z,10.54
2019-05-09T17:41:47.002Z,10.27
2019-05-09T17:44:15.650Z,10.21
2019-05-09T17:46:44.461Z,10.48
2019-05-09T17:49:13.249Z,10.32
2019-05-09T17:51:41.960Z,10.29
2019-05-09T17:54:11.099Z,10.16
2019-05-09T17:56:40.041Z,10.11
2019-05-09T17:59:09.039Z,10.26
2019-05-09T18:01:37.859Z,10.25
2019-05-09T18:04:08.934Z,10.18
2019-05-09T18:06:38.077Z,10.25
2019-05-09T18:09:08.500Z,10.21
2019-05-09T18:11:37.798Z,10.32
2019-05-09T18:14:08.120Z,10.29
2019-05-09T18:16:39.199Z,10.17
2019-05-09T18:19:09.071Z,10.16
2019-05-09T18:21:50.363Z,10.13
2019-05-09T18:24:08.856Z,10.22
2019-05-09T18:26:38.372Z,10.26
2019-05-09T18:29:07.255Z,10.34
2019-05-09T18:31:53.860Z,10.37
2019-05-09T18:34:22.627Z,10.28
2019-05-09T18:36:52.486Z,10.31
2019-05-09T18:39:22.991Z,10.36
2019-05-09T18:41:53.674Z,10.28
2019-05-09T18:44:22.053Z,10.23
2019-05-09T18:46:51.289Z,10.16
2019-05-09T18:49:20.101Z,10.20
2019-05-09T18:52:02.600Z,10.01
2019-05-09T18:54:20.727Z,9.97
2019-05-09T18:56:49.578Z,9.88
2019-05-09T18:59:18.737Z,9.80
2019-05-09T19:01:47.706Z,9.85
2019-05-09T19:04:18.036Z,9.66
2019-05-09T19:06:46.727Z,9.72
2019-05-09T19:09:15.435Z,9.58
2019-05-09T19:11:45.986Z,9.61
2019-05-09T19:14:22.023Z,9.58
2019-05-09T19:16:59.489Z,9.48
2019-05-09T19:19:38.917Z,9.53
2019-05-09T19:22:21.448Z,9.62
2019-05-09T19:24:38.699Z,9.57
2019-05-09T19:27:07.623Z,9.64
2019-05-09T19:29:36.884Z,9.61
2019-05-09T19:32:07.295Z,9.62
2019-05-09T19:34:36.229Z,9.61
2019-05-09T19:37:05.186Z,9.60
2019-05-09T19:39:34.099Z,9.58
2019-05-09T19:42:05.305Z,9.59
2019-05-09T19:44:36.121Z,9.56
2019-05-09T19:47:05.118Z,9.48
2019-05-09T19:49:34.050Z,9.45
2019-05-09T19:52:02.960Z,9.49
2019-05-09T19:54:31.787Z,9.52
2019-05-09T19:57:00.489Z,9.50
2019-05-09T19:59:29.333Z,9.50
2019-05-09T20:02:00.573Z,9.40
2019-05-09T20:04:29.124Z,9.29
2019-05-09T20:06:58.013Z,9.28
2019-05-09T20:09:28.543Z,9.20
2019-05-09T20:12:00.025Z,9.19
2019-05-09T20:14:36.058Z,9.19
2019-05-09T20:17:04.690Z,9.24
2019-05-09T20:19:33.468Z,9.26
2019-05-09T20:22:02.098Z,9.14
2019-05-09T20:24:31.074Z,9.16
2019-05-09T20:26:59.716Z,9.00
2019-05-09T20:29:30.347Z,9.01
2019-05-09T20:31:58.943Z,8.92
2019-05-09T20:34:29.245Z,8.89
2019-05-09T20:36:57.941Z,8.85
2019-05-09T20:39:26.812Z,8.88
2019-05-09T20:41:55.709Z,8.88
2019-05-09T20:44:24.514Z,8.72
2019-05-09T20:46:54.881Z,8.78
2019-05-09T20:49:23.698Z,8.84
2019-05-09T20:51:52.725Z,8.85
2019-05-09T20:54:21.761Z,8.74
2019-05-09T20:56:50.668Z,8.70
2019-05-09T20:59:19.574Z,8.68
2019-05-09T21:01:48.557Z,8.78
2019-05-09T21:04:17.371Z,8.67
2019-05-09T21:06:47.401Z,8.62
2019-05-09T21:09:16.246Z,8.62
2019-05-09T21:11:45.053Z,8.58
2019-05-09T21:14:13.947Z,8.59
2019-05-09T21:16:42.818Z,8.70
2019-05-09T21:19:11.679Z,8.72
2019-05-09T21:21:40.492Z,8.62
2019-05-09T21:24:09.369Z,8.60
2019-05-09T21:26:38.187Z,8.66
2019-05-09T21:29:07.058Z,8.65
2019-05-09T21:31:35.901Z,8.63
2019-05-09T21:34:04.784Z,8.59
2019-05-09T21:36:34.991Z,8.57
2019-05-09T21:39:05.235Z,8.64
2019-05-09T21:41:33.915Z,8.56
2019-05-09T21:44:02.615Z,8.58
2019-05-09T21:46:31.334Z,8.58
2019-05-09T21:49:00.034Z,8.61
2019-05-09T21:51:28.783Z,8.59
2019-05-09T21:53:57.434Z,8.66
2019-05-09T21:56:27.125Z,8.65
2019-05-09T21:58:55.754Z,8.63
2019-05-09T22:01:24.433Z,8.65
2019-05-09T22:03:53.091Z,8.63
2019-05-09T22:06:21.799Z,8.65
2019-05-09T22:08:50.443Z,8.55
2019-05-09T22:11:19.135Z,8.45
2019-05-09T22:13:47.780Z,8.54
2019-05-09T22:16:16.416Z,8.53
2019-05-09T22:18:45.091Z,8.61
2019-05-09T22:21:15.271Z,8.58
2019-05-09T22:23:55.421Z,8.61
2019-05-09T22:26:14.296Z,8.60
2019-05-09T22:28:42.980Z,8.69
2019-05-09T22:31:11.640Z,8.72
2019-05-09T22:33:40.370Z,8.63
2019-05-09T22:36:08.984Z,8.55
2019-05-09T22:38:37.677Z,8.48
2019-05-09T22:41:06.579Z,8.52
2019-05-09T22:43:35.264Z,8.52
2019-05-09T22:46:03.933Z,8.53
2019-05-09T22:48:32.621Z,8.53
2019-05-09T22:51:01.241Z,8.52
2019-05-09T22:53:29.931Z,8.44
2019-05-09T22:55:58.585Z,8.46
2019-05-09T22:58:27.275Z,8.53
2019-05-09T23:00:55.903Z,8.40
2019-05-09T23:03:24.531Z,8.13
2019-05-09T23:05:53.201Z,8.04
2019-05-09T23:08:21.863Z,8.12
2019-05-09T23:10:53.390Z,8.07
2019-05-09T23:13:20.904Z,8.02
2019-05-09T23:15:49.580Z,8.11
2019-05-09T23:18:18.196Z,8.15
2019-05-09T23:20:48.838Z,8.12
2019-05-09T23:23:27.805Z,8.08
2019-05-09T23:25:56.486Z,8.02
2019-05-09T23:28:25.657Z,7.92
2019-05-09T23:30:55.933Z,7.93
2019-05-09T23:33:26.196Z,7.94
2019-05-09T23:35:54.826Z,7.95
2019-05-09T23:38:23.446Z,7.94
2019-05-09T23:40:52.120Z,7.95
2019-05-09T23:43:20.738Z,7.85
2019-05-09T23:45:49.431Z,7.82
2019-05-09T23:48:18.062Z,7.83
2019-05-09T23:50:46.662Z,7.78
2019-05-09T23:53:18.698Z,7.88
2019-05-09T23:56:05.101Z,7.87
2019-05-09T23:58:51.735Z,7.93
